sensor_id;sensor_type;location;lat;lon;timestamp;pressure;altitude;pressure_sealevel;temperature;humidity
67545;BME280;54380;47.770;11.150;2023-06-01T06:37:34;94910.94;;;17.62;51.51
67545;BME280;54380;47.770;11.150;2023-06-01T15:33:08;94617.69;;;27.71;36.37
67545;BME280;54380;47.770;11.150;2023-06-01T15:35:35;94613.72;;;27.65;35.86
67545;BME280;54380;47.770;11.150;2023-06-01T15:38:02;94614.03;;;27.60;36.06
67545;BME280;54380;47.770;11.150;2023-06-01T15:40:29;94618.19;;;27.54;36.51
67545;BME280;54380;47.770;11.150;2023-06-01T15:42:56;94613.50;;;27.51;36.57
67545;BME280;54380;47.770;11.150;2023-06-01T15:45:23;94614.63;;;27.46;36.65
67545;BME280;54380;47.770;11.150;2023-06-01T15:47:50;94616.47;;;27.42;36.74
67545;BME280;54380;47.770;11.150;2023-06-01T15:50:18;94614.06;;;27.37;36.91
67545;BME280;54380;47.770;11.150;2023-06-01T15:52:46;94607.81;;;27.33;36.92
67545;BME280;54380;47.770;11.150;2023-06-01T15:55:13;94614.34;;;27.28;36.81
67545;BME280;54380;47.770;11.150;2023-06-01T15:57:40;94605.31;;;27.21;36.65
67545;BME280;54380;47.770;11.150;2023-06-01T16:00:07;94615.16;;;27.09;36.94
67545;BME280;54380;47.770;11.150;2023-06-01T16:02:39;94613.53;;;27.05;37.05
67545;BME280;54380;47.770;11.150;2023-06-01T16:05:06;94611.13;;;27.00;37.29
67545;BME280;54380;47.770;11.150;2023-06-01T16:07:35;94616.06;;;26.94;37.38
67545;BME280;54380;47.770;11.150;2023-06-01T16:10:01;94614.50;;;26.93;37.17
67545;BME280;54380;47.770;11.150;2023-06-01T16:12:28;94618.31;;;26.88;36.73
67545;BME280;54380;47.770;11.150;2023-06-01T16:14:55;94615.81;;;26.80;37.11
67545;BME280;54380;47.770;11.150;2023-06-01T16:17:22;94617.00;;;26.82;36.98
67545;BME280;54380;47.770;11.150;2023-06-01T16:19:51;94612.31;;;26.79;36.82
67545;BME280;54380;47.770;11.150;2023-06-01T16:22:17;94616.19;;;26.78;37.02
67545;BME280;54380;47.770;11.150;2023-06-01T16:24:46;94616.59;;;26.80;37.22
67545;BME280;54380;47.770;11.150;2023-06-01T16:27:13;94613.88;;;26.80;37.24
67545;BME280;54380;47.770;11.150;2023-06-01T16:29:39;94614.59;;;26.77;37.28
67545;BME280;54380;47.770;11.150;2023-06-01T16:32:07;94614.25;;;26.79;37.06
67545;BME280;54380;47.770;11.150;2023-06-01T16:34:34;94617.69;;;26.76;37.26
67545;BME280;54380;47.770;11.150;2023-06-01T16:37:01;94612.19;;;26.72;38.05
67545;BME280;54380;47.770;11.150;2023-06-01T16:39:28;94610.59;;;26.67;37.35
67545;BME280;54380;47.770;11.150;2023-06-01T16:41:56;94609.25;;;26.58;37.30
67545;BME280;54380;47.770;11.150;2023-06-01T16:44:23;94608.75;;;26.52;37.14
67545;BME280;54380;47.770;11.150;2023-06-01T16:46:50;94610.13;;;26.46;37.01
67545;BME280;54380;47.770;11.150;2023-06-01T16:49:17;94614.28;;;26.40;37.27
67545;BME280;54380;47.770;11.150;2023-06-01T16:51:43;94615.72;;;26.34;37.03
67545;BME280;54380;47.770;11.150;2023-06-01T16:54:10;94609.72;;;26.24;37.12
67545;BME280;54380;47.770;11.150;2023-06-01T16:56:37;94614.59;;;26.15;37.75
67545;BME280;54380;47.770;11.150;2023-06-01T16:59:05;94612.94;;;26.11;37.27
67545;BME280;54380;47.770;11.150;2023-06-01T17:01:32;94615.59;;;26.07;37.61
67545;BME280;54380;47.770;11.150;2023-06-01T17:03:59;94616.69;;;26.06;37.19
67545;BME280;54380;47.770;11.150;2023-06-01T17:06:27;94608.97;;;26.04;37.33
67545;BME280;54380;47.770;11.150;2023-06-01T17:08:53;94610.47;;;26.02;37.46
67545;BME280;54380;47.770;11.150;2023-06-01T17:11:21;94613.50;;;26.00;37.74
67545;BME280;54380;47.770;11.150;2023-06-01T17:13:48;94608.81;;;25.97;37.66
67545;BME280;54380;47.770;11.150;2023-06-01T17:16:17;94613.34;;;25.93;37.77
67545;BME280;54380;47.770;11.150;2023-06-01T17:18:44;94607.09;;;25.89;37.34
67545;BME280;54380;47.770;11.150;2023-06-01T17:21:11;94610.50;;;25.86;37.38
67545;BME280;54380;47.770;11.150;2023-06-01T17:23:38;94614.69;;;25.83;37.43
67545;BME280;54380;47.770;11.150;2023-06-01T17:26:05;94607.63;;;25.79;38.01
67545;BME280;54380;47.770;11.150;2023-06-01T17:28:32;94606.69;;;25.71;37.71
67545;BME280;54380;47.770;11.150;2023-06-01T17:31:00;94611.59;;;25.66;38.19
67545;BME280;54380;47.770;11.150;2023-06-01T17:33:29;94607.22;;;25.61;38.14
67545;BME280;54380;47.770;11.150;2023-06-01T17:35:56;94617.53;;;25.55;38.14
67545;BME280;54380;47.770;11.150;2023-06-01T17:38:23;94615.09;;;25.50;38.43
67545;BME280;54380;47.770;11.150;2023-06-01T17:40:51;94620.44;;;25.47;37.96
67545;BME280;54380;47.770;11.150;2023-06-01T17:43:17;94615.28;;;25.42;38.54
67545;BME280;54380;47.770;11.150;2023-06-01T17:45:44;94617.91;;;25.38;39.51
67545;BME280;54380;47.770;11.150;2023-06-01T17:48:11;94619.75;;;25.34;38.53
67545;BME280;54380;47.770;11.150;2023-06-01T17:50:40;94615.03;;;25.31;38.26
67545;BME280;54380;47.770;11.150;2023-06-01T17:53:07;94621.16;;;25.28;38.17
67545;BME280;54380;47.770;11.150;2023-06-01T17:55:56;94620.63;;;25.22;37.91
67545;BME280;54380;47.770;11.150;2023-06-01T17:58:23;94616.91;;;25.14;37.67
67545;BME280;54380;47.770;11.150;2023-06-01T18:00:49;94622.63;;;25.09;37.39
67545;BME280;54380;47.770;11.150;2023-06-01T18:03:16;94623.22;;;25.03;38.22
67545;BME280;54380;47.770;11.150;2023-06-01T18:05:44;94621.09;;;24.96;39.02
67545;BME280;54380;47.770;11.150;2023-06-01T18:08:11;94622.75;;;24.85;39.27
67545;BME280;54380;47.770;11.150;2023-06-01T18:10:38;94627.56;;;24.75;38.92
67545;BME280;54380;47.770;11.150;2023-06-01T18:13:05;94621.97;;;24.68;40.27
67545;BME280;54380;47.770;11.150;2023-06-01T18:15:32;94631.00;;;24.60;39.78
67545;BME280;54380;47.770;11.150;2023-06-01T18:17:58;94628.47;;;24.51;39.30
67545;BME280;54380;47.770;11.150;2023-06-01T18:20:25;94632.84;;;24.44;39.76
67545;BME280;54380;47.770;11.150;2023-06-01T18:22:53;94642.31;;;24.38;41.39
67545;BME280;54380;47.770;11.150;2023-06-01T18:25:20;94637.50;;;24.31;41.41
67545;BME280;54380;47.770;11.150;2023-06-01T18:27:47;94637.31;;;24.24;42.65
67545;BME280;54380;47.770;11.150;2023-06-01T18:30:14;94651.41;;;24.17;42.10
67545;BME280;54380;47.770;11.150;2023-06-01T18:32:41;94649.72;;;24.13;41.68
67545;BME280;54380;47.770;11.150;2023-06-01T18:35:08;94643.53;;;24.12;42.51
67545;BME280;54380;47.770;11.150;2023-06-01T18:37:34;94643.41;;;24.08;41.98
67545;BME280;54380;47.770;11.150;2023-06-01T18:40:04;94651.06;;;24.06;41.97
67545;BME280;54380;47.770;11.150;2023-06-01T18:42:31;94650.19;;;24.02;41.62
67545;BME280;54380;47.770;11.150;2023-06-01T18:44:57;94652.34;;;23.97;41.68
67545;BME280;54380;47.770;11.150;2023-06-01T18:47:24;94654.13;;;23.93;42.01
67545;BME280;54380;47.770;11.150;2023-06-01T18:49:51;94657.06;;;23.87;42.34
67545;BME280;54380;47.770;11.150;2023-06-01T18:52:19;94655.06;;;23.84;42.83
67545;BME280;54380;47.770;11.150;2023-06-01T18:54:46;94661.81;;;23.78;43.21
67545;BME280;54380;47.770;11.150;2023-06-01T18:57:14;94668.53;;;23.72;43.46
67545;BME280;54380;47.770;11.150;2023-06-01T18:59:41;94665.63;;;23.65;43.67
67545;BME280;54380;47.770;11.150;2023-06-01T19:02:09;94667.63;;;23.56;43.14
67545;BME280;54380;47.770;11.150;2023-06-01T19:04:37;94662.69;;;23.45;43.60
67545;BME280;54380;47.770;11.150;2023-06-01T19:07:05;94663.13;;;23.35;43.67
67545;BME280;54380;47.770;11.150;2023-06-01T19:09:31;94664.16;;;23.31;43.60
67545;BME280;54380;47.770;11.150;2023-06-01T19:12:02;94668.19;;;23.25;44.24
67545;BME280;54380;47.770;11.150;2023-06-01T19:14:31;94665.72;;;23.19;43.91
67545;BME280;54380;47.770;11.150;2023-06-01T19:16:58;94670.53;;;23.14;43.26
67545;BME280;54380;47.770;11.150;2023-06-01T19:19:25;94664.94;;;23.07;43.44
67545;BME280;54380;47.770;11.150;2023-06-01T19:21:52;94674.69;;;22.99;42.60
67545;BME280;54380;47.770;11.150;2023-06-01T19:24:20;94671.13;;;22.86;42.51
67545;BME280;54380;47.770;11.150;2023-06-01T19:26:49;94674.91;;;22.73;42.22
67545;BME280;54380;47.770;11.150;2023-06-01T19:29:16;94673.50;;;22.54;42.34
67545;BME280;54380;47.770;11.150;2023-06-01T19:31:45;94680.16;;;22.36;42.34
67545;BME280;54380;47.770;11.150;2023-06-01T19:34:12;94680.00;;;22.11;42.27
67545;BME280;54380;47.770;11.150;2023-06-01T19:36:50;94687.66;;;21.80;42.71
67545;BME280;54380;47.770;11.150;2023-06-01T19:39:20;94683.13;;;21.42;43.26
67545;BME280;54380;47.770;11.150;2023-06-01T19:41:48;94681.13;;;21.21;44.31
